Terminal Aerodrome Forecast
Issued by NWS

Home | Current Version | Previous Version | Text Only | Print | Product List | Glossary On
Versions: 1 2 3 4 5 6 7 8 9 10 11 12 13 14 15 16 17 18 19 20 21 22 23 24 25 26 27 28 29
000
FTUS43 KGRB 171700
TAFRHI
TAF
KRHI 171724Z 1718/1818 28008KT P6SM SCT060 SCT100
     FM172100 30008G17KT P6SM BKN040
     FM172300 03008KT P6SM BKN018
     FM180600 07004KT P6SM SCT020
     FM181600 12006KT P6SM BKN025=

USA.gov is the U.S. government's official web portal to all federal, state and local government web resources and services.